»·PEaware :: FFT751 KDEN-KPHX

FFT751 :: KDEN-KPHX

FLIGHT INFORMATION

Flight Status: Arrived
Operator:
Frontier Airlines
More flights by this operator :: More flights under this callsign
Pilot: Chandler S. (807)
Aircraft: AIRBUS A321
(A321)
More flights by this aircraft type
Origin: KDEN Denver Intl
United States
Destination: KPHX Phoenix Sky Harbor Intl
United States
More flights between these airports :: More routes between these airports
Route: SMMUR1 DAAYE GUP EAGUL6
File this flight plan on PilotEdge
Remarks:
Altitude:
(Current/Filed)
34,000ft
Speed:
(Current/Filed)
400kts
Departed: 08-Jul-20 08:48 AM
Arrived: 08-Jul-20 10:28 AM
Distance/Time
Traveled:
523nm/1:40
Distance/Time
To Go:
Arrived

Flight Plot

Page will automatically refresh every two minutes.

Flight plan parsing failed; only flown route is shown


Map Options




Map Legend


Flown Route
Filed Route
Departure Airport
Arrival Airport
Navaid (VOR, NDB)
Fix

Horizontal Profiles

Position Reports

Time Latitude Longitude Heading Altitude Ground
Speed
08-Jul-20 08:23 39.853317 -104.678050 58 5440ft 0kts
08-Jul-20 08:24 39.853317 -104.678050 58 5440ft 0kts
08-Jul-20 08:25 39.853317 -104.678050 58 5440ft 0kts
08-Jul-20 08:26 39.853317 -104.678050 58 5440ft 0kts
08-Jul-20 08:27 39.853317 -104.678050 58 5440ft 0kts
08-Jul-20 08:28 39.853317 -104.678050 58 5440ft 0kts
08-Jul-20 08:29 39.853317 -104.678050 58 5440ft 0kts
08-Jul-20 08:30 39.853317 -104.678050 58 5440ft 0kts
08-Jul-20 08:31 39.853317 -104.678050 58 5440ft 0kts
08-Jul-20 08:32 39.853317 -104.678050 58 5440ft 0kts
08-Jul-20 08:33 39.853317 -104.678051 58 5440ft 0kts
08-Jul-20 08:34 39.853317 -104.678051 58 5440ft 0kts
08-Jul-20 08:35 39.853099 -104.678284 7 5440ft 2kts
08-Jul-20 08:36 39.852764 -104.677883 266 5440ft 1kts
08-Jul-20 08:37 39.852765 -104.677847 269 5440ft 0kts
08-Jul-20 08:38 39.852765 -104.677847 269 5440ft 0kts
08-Jul-20 08:39 39.852765 -104.677847 269 5440ft 0kts
08-Jul-20 08:40 39.852765 -104.677847 269 5440ft 0kts
08-Jul-20 08:41 39.852765 -104.677847 269 5440ft 0kts
08-Jul-20 08:42 39.852765 -104.677847 269 5440ft 0kts
08-Jul-20 08:43 39.852762 -104.678205 269 5440ft 5kts
08-Jul-20 08:44 39.852104 -104.682914 253 5440ft 12kts
08-Jul-20 08:45 39.846066 -104.684091 178 5440ft 26kts
08-Jul-20 08:46 39.841826 -104.684125 181 5440ft 0kts
08-Jul-20 08:47 39.840720 -104.688362 270 5440ft 79kts
08-Jul-20 08:48 39.835063 -104.749439 245 7204ft 218kts
08-Jul-20 08:49 39.803624 -104.830815 244 9905ft 276kts
08-Jul-20 08:50 39.758939 -104.911860 198 10291ft 299kts
08-Jul-20 08:51 39.678024 -104.921341 169 13322ft 296kts
08-Jul-20 08:52 39.601400 -104.889963 153 16012ft 288kts
08-Jul-20 08:53 39.530784 -104.840019 154 18002ft 294kts
08-Jul-20 08:54 39.452009 -104.820800 188 19620ft 296kts
08-Jul-20 08:55 39.371400 -104.837428 220 21218ft 291kts
08-Jul-20 08:56 39.306801 -104.901717 223 22839ft 296kts
08-Jul-20 08:57 39.240807 -104.966996 223 24452ft 301kts
08-Jul-20 08:58 39.174485 -105.032229 223 26059ft 300kts
08-Jul-20 08:59 39.103136 -105.087845 213 27645ft 300kts
08-Jul-20 09:00 39.027272 -105.137086 214 28884ft 308kts
08-Jul-20 09:01 38.948585 -105.187999 214 29826ft 324kts
08-Jul-20 09:02 38.865796 -105.241322 215 30721ft 339kts
08-Jul-20 09:03 38.781064 -105.295622 215 31938ft 342kts
08-Jul-20 09:04 38.694684 -105.351023 215 33036ft 348kts
08-Jul-20 09:06 38.606840 -105.407288 215 33849ft 360kts
08-Jul-20 09:07 38.515090 -105.465936 214 34182ft 385kts
08-Jul-20 09:08 38.414971 -105.529437 213 34226ft 403kts
08-Jul-20 09:09 38.312346 -105.593180 213 34299ft 425kts
08-Jul-20 09:10 38.205860 -105.659179 212 34341ft 441kts
08-Jul-20 09:11 38.094567 -105.728291 213 34342ft 442kts
08-Jul-20 09:12 37.992652 -105.811173 224 34335ft 431kts
08-Jul-20 09:13 37.906130 -105.914381 230 34317ft 426kts
08-Jul-20 09:14 37.824204 -106.018122 230 34309ft 426kts
08-Jul-20 09:15 37.740519 -106.124207 230 34308ft 426kts
08-Jul-20 09:16 37.656759 -106.230225 230 34308ft 426kts
08-Jul-20 09:17 37.573370 -106.335448 230 34308ft 426kts
08-Jul-20 09:18 37.489472 -106.440961 230 34319ft 426kts
08-Jul-20 09:19 37.405431 -106.546315 230 34341ft 426kts
08-Jul-20 09:20 37.321524 -106.651144 230 34359ft 426kts
08-Jul-20 09:21 37.237934 -106.755618 230 34362ft 426kts
08-Jul-20 09:22 37.153648 -106.860306 230 34363ft 425kts
08-Jul-20 09:22 37.083521 -106.947060 230 34362ft 423kts
08-Jul-20 09:24 36.985477 -107.067984 230 34362ft 425kts
08-Jul-20 09:25 36.901179 -107.171594 230 34362ft 427kts
08-Jul-20 09:25 36.832289 -107.255459 230 34362ft 427kts
08-Jul-20 09:27 36.733314 -107.376056 230 34352ft 427kts
08-Jul-20 09:27 36.662609 -107.462085 230 34329ft 427kts
08-Jul-20 09:28 36.577559 -107.565291 230 34297ft 427kts
08-Jul-20 09:30 36.478127 -107.685665 230 34262ft 427kts
08-Jul-20 09:30 36.406917 -107.771814 230 34235ft 428kts
08-Jul-20 09:31 36.321426 -107.874629 230 34219ft 428kts
08-Jul-20 09:32 36.235777 -107.977239 230 34217ft 428kts
08-Jul-20 09:33 36.150195 -108.079435 230 34217ft 428kts
08-Jul-20 09:34 36.064598 -108.181321 230 34229ft 428kts
08-Jul-20 09:35 35.978860 -108.283042 230 34277ft 428kts
08-Jul-20 09:36 35.899900 -108.376437 230 34302ft 428kts
08-Jul-20 09:37 35.806638 -108.485806 230 34306ft 428kts
08-Jul-20 09:38 35.720896 -108.586482 230 34306ft 428kts
08-Jul-20 09:39 35.635015 -108.687259 229 34307ft 428kts
08-Jul-20 09:40 35.548826 -108.788166 229 34307ft 428kts
08-Jul-20 09:41 35.463317 -108.889570 232 34307ft 426kts
08-Jul-20 09:42 35.381966 -108.995004 232 34308ft 425kts
08-Jul-20 09:43 35.300791 -109.099899 232 34310ft 424kts
08-Jul-20 09:44 35.219668 -109.204426 232 34314ft 423kts
08-Jul-20 09:45 35.138724 -109.308409 232 34309ft 423kts
08-Jul-20 09:46 35.057547 -109.412357 232 34282ft 423kts
08-Jul-20 09:47 34.976252 -109.516255 231 34256ft 429kts
08-Jul-20 09:48 34.892918 -109.622269 230 34252ft 441kts
08-Jul-20 09:49 34.824954 -109.708187 229 34254ft 444kts
08-Jul-20 09:50 34.741870 -109.818437 234 34258ft 442kts
08-Jul-20 09:51 34.676057 -109.943417 245 34266ft 437kts
08-Jul-20 09:52 34.625360 -110.077840 247 34269ft 437kts
08-Jul-20 09:53 34.575462 -110.211251 247 33286ft 430kts
08-Jul-20 09:54 34.526288 -110.342213 247 32286ft 425kts
08-Jul-20 09:55 34.477342 -110.471947 247 31281ft 419kts
08-Jul-20 09:56 34.429061 -110.599275 247 30279ft 414kts
08-Jul-20 09:57 34.385552 -110.713796 246 29374ft 409kts
08-Jul-20 09:58 34.327510 -110.830245 230 27895ft 406kts
08-Jul-20 09:59 34.251216 -110.929122 229 26072ft 394kts
08-Jul-20 10:00 34.177807 -111.023747 229 23958ft 373kts
08-Jul-20 10:01 34.110775 -111.110046 228 21557ft 348kts
08-Jul-20 10:02 34.044185 -111.195586 228 19156ft 352kts
08-Jul-20 10:03 33.979548 -111.278301 228 17232ft 316kts
08-Jul-20 10:04 33.921102 -111.352979 227 15428ft 303kts
08-Jul-20 10:05 33.866851 -111.430491 237 13615ft 299kts
08-Jul-20 10:06 33.823368 -111.513223 237 13109ft 291kts
08-Jul-20 10:07 33.780240 -111.594962 237 12634ft 274kts
08-Jul-20 10:08 33.740501 -111.669569 237 11540ft 263kts
08-Jul-20 10:09 33.701062 -111.743647 238 10956ft 263kts
08-Jul-20 10:10 33.662700 -111.815963 238 10041ft 242kts
08-Jul-20 10:11 33.626994 -111.883198 238 9961ft 238kts
08-Jul-20 10:12 33.591198 -111.950445 239 9171ft 237kts
08-Jul-20 10:13 33.555632 -112.017180 239 8108ft 237kts
08-Jul-20 10:14 33.525028 -112.085987 267 7103ft 233kts
08-Jul-20 10:15 33.524814 -112.163587 269 7039ft 231kts
08-Jul-20 10:16 33.523225 -112.240492 268 7039ft 230kts
08-Jul-20 10:17 33.521602 -112.317516 267 7039ft 230kts
08-Jul-20 10:18 33.519918 -112.394524 266 7037ft 231kts
08-Jul-20 10:19 33.492157 -112.453919 183 6369ft 235kts
08-Jul-20 10:20 33.452818 -112.396438 110 5040ft 243kts
08-Jul-20 10:21 33.432596 -112.319554 107 4040ft 231kts
08-Jul-20 10:22 33.426503 -112.244567 83 3925ft 232kts
08-Jul-20 10:23 33.428844 -112.170049 90 3125ft 194kts
08-Jul-20 10:24 33.428881 -112.111158 87 2392ft 167kts
08-Jul-20 10:25 33.428966 -112.056439 89 1664ft 158kts
08-Jul-20 10:26 33.428872 -112.010447 89 1140ft 53kts
08-Jul-20 10:27 33.430474 -112.006329 20 1140ft 12kts
08-Jul-20 10:28 33.432008 -112.006446 306 1140ft 0kts
08-Jul-20 10:29 33.432863 -112.011081 271 1140ft 20kts
08-Jul-20 10:30 33.433951 -112.014525 89 1140ft 6kts
08-Jul-20 10:31 33.433953 -112.014414 89 1140ft 0kts

Navigation Log

Ident Type
Flight plan parsing failed, navigation log unavailable